Time;durP1;ratioP1;P1;durP2;ratioP2;P2;SDS_P1;SDS_P2;PMS_P1;PMS_P2;Temp;Humidity;BMP_temperature;BMP_pressure;BME280_temperature;BME280_humidity;BME280_pressure;Samples;Min_cycle;Max_cycle;Signal;HPM_P1;HPM_P2
2021/01/15 00:01:05;;;;;;;7.07;4.73;;;;;;;0.62;78.99;100082.56;5010805;28;20057;-70
2021/01/15 00:03:35;;;;;;;7.63;4.23;;;;;;;0.38;78.90;100089.34;5010730;28;20026;-69
2021/01/15 00:06:05;;;;;;;;;;;;;;;0.34;78.91;100088.25;5003169;28;20414;-67
2021/01/15 00:08:40;;;;;;;7.43;4.20;;;;;;;0.11;79.64;100049.41;5010792;28;20264;-71
2021/01/15 00:11:30;;;;;;;5.90;3.67;;;;;;;0.24;79.98;100089.22;4992614;28;20045;-71
2021/01/15 00:13:56;;;;;;;6.83;4.13;;;;;;;0.29;80.23;100099.72;5010973;28;20038;-71
2021/01/15 00:16:30;;;;;;;6.17;4.53;;;;;;;0.25;80.29;100112.94;5011050;28;20487;-68
2021/01/15 00:18:57;;;;;;;7.53;4.30;;;;;;;0.19;81.08;100128.63;5010721;28;20164;-71
2021/01/15 00:21:24;;;;;;;6.90;4.13;;;;;;;0.23;81.32;100125.53;5010686;28;20562;-70
2021/01/15 00:23:50;;;;;;;8.47;4.77;;;;;;;0.10;81.78;100120.34;5010464;28;20088;-70
2021/01/15 00:26:20;;;;;;;8.23;4.37;;;;;;;0.10;82.18;100128.84;5012475;28;20447;-70
2021/01/15 00:28:48;;;;;;;6.60;3.87;;;;;;;0.03;82.58;100129.16;5014185;28;20500;-71
2021/01/15 00:31:14;;;;;;;7.50;5.17;;;;;;;-0.05;82.95;100126.06;5014530;28;20026;-69
2021/01/15 00:33:40;;;;;;;6.43;4.20;;;;;;;-0.29;83.04;100084.53;5014535;28;20030;-70
2021/01/15 00:36:07;;;;;;;8.03;4.70;;;;;;;-0.07;82.72;100134.34;5014229;28;20091;-70
2021/01/15 00:38:33;;;;;;;7.60;5.07;;;;;;;-0.18;83.62;100143.69;5012468;28;20030;-71
2021/01/15 00:41:04;;;;;;;7.17;4.40;;;;;;;-0.35;83.61;100110.34;5014270;28;20032;-69
2021/01/15 00:43:30;;;;;;;6.93;4.93;;;;;;;-0.09;83.57;100140.94;5014035;28;20091;-70
2021/01/15 00:45:56;;;;;;;7.93;5.27;;;;;;;-0.10;83.80;100151.88;5013937;28;20457;-74
2021/01/15 00:48:21;;;;;;;7.40;5.17;;;;;;;-0.21;83.97;100156.16;5014051;28;20522;-70
2021/01/15 00:50:47;;;;;;;7.37;5.23;;;;;;;-0.20;83.94;100145.22;5014010;28;20022;-70
2021/01/15 00:53:13;;;;;;;7.93;5.27;;;;;;;-0.04;83.63;100152.31;5013604;28;20488;-70
2021/01/15 00:55:38;;;;;;;6.97;5.27;;;;;;;-0.08;83.75;100141.06;5013872;28;20030;-70
2021/01/15 00:58:04;;;;;;;6.13;4.67;;;;;;;-0.13;83.10;100150.00;5014180;28;20029;-71
2021/01/15 01:00:30;;;;;;;6.80;4.77;;;;;;;-0.37;83.18;100114.41;5014088;28;20460;-70
2021/01/15 01:02:56;;;;;;;7.20;4.93;;;;;;;-0.34;83.32;100134.06;5013891;28;20026;-74
2021/01/15 01:05:22;;;;;;;6.87;4.87;;;;;;;-0.22;83.23;100150.19;5013926;28;20037;-70
2021/01/15 01:07:49;;;;;;;7.73;4.97;;;;;;;-0.34;82.95;100144.19;5013157;28;20503;-68
2021/01/15 01:10:15;;;;;;;8.40;5.37;;;;;;;-0.40;83.46;100142.09;5012828;28;20030;-72
2021/01/15 01:12:41;;;;;;;8.80;5.50;;;;;;;-0.43;83.19;100138.44;5013711;28;20030;-69
2021/01/15 01:15:09;;;;;;;9.90;5.43;;;;;;;-0.43;83.11;100141.84;5013839;28;20037;-70
2021/01/15 01:17:34;;;;;;;8.13;5.40;;;;;;;-0.51;82.91;100148.03;5013679;28;20091;-67
2021/01/15 01:20:00;;;;;;;8.47;5.37;;;;;;;-0.50;83.36;100153.19;5019682;28;20053;-71
2021/01/15 01:22:25;;;;;;;8.07;5.20;;;;;;;-0.54;83.01;100142.69;5033116;28;20045;-71
2021/01/15 01:24:50;;;;;;;8.27;5.30;;;;;;;-0.51;82.77;100146.34;5032993;28;20032;-68
2021/01/15 01:27:16;;;;;;;8.77;6.37;;;;;;;-0.47;82.36;100144.94;5033193;28;20030;-70
2021/01/15 01:29:41;;;;;;;10.20;6.47;;;;;;;-0.53;82.53;100162.22;5033001;28;20036;-69
2021/01/15 01:32:07;;;;;;;9.87;5.97;;;;;;;-0.50;82.37;100162.44;5032671;28;20021;-70
2021/01/15 01:34:32;;;;;;;8.27;5.73;;;;;;;-0.69;82.22;100127.22;5033426;28;20025;-70
2021/01/15 01:36:57;;;;;;;7.53;5.43;;;;;;;-0.54;82.12;100171.47;5031672;28;20025;-70
2021/01/15 01:39:23;;;;;;;7.20;5.47;;;;;;;-0.55;82.37;100163.75;5032680;28;20025;-70
2021/01/15 01:41:48;;;;;;;8.90;6.33;;;;;;;-0.52;81.97;100169.94;5033122;28;20029;-72
2021/01/15 01:44:14;;;;;;;8.10;5.77;;;;;;;-0.53;82.37;100174.91;5032433;28;20099;-68
2021/01/15 01:46:40;;;;;;;9.77;6.13;;;;;;;-0.53;81.85;100174.91;5032686;28;20040;-70
2021/01/15 01:49:06;;;;;;;10.13;6.00;;;;;;;-0.66;82.30;100173.97;5032444;28;20021;-70
2021/01/15 01:51:31;;;;;;;7.53;5.63;;;;;;;-0.68;82.70;100167.00;5032536;28;20033;-70
2021/01/15 01:53:58;;;;;;;11.57;6.23;;;;;;;-0.67;82.54;100189.94;5032478;28;20396;-70
2021/01/15 01:56:24;;;;;;;8.93;6.13;;;;;;;-0.74;82.68;100180.09;5031876;28;20033;-70
2021/01/15 01:58:51;;;;;;;9.40;6.13;;;;;;;-0.71;82.96;100194.63;5032662;28;20052;-68
2021/01/15 02:01:17;;;;;;;9.80;5.90;;;;;;;-1.04;82.94;100154.13;5032566;28;20029;-68
2021/01/15 02:03:43;;;;;;;10.33;6.43;;;;;;;-0.84;83.22;100191.16;5032544;28;20034;-70
2021/01/15 02:06:13;;;;;;;9.47;6.57;;;;;;;-0.84;83.18;100181.00;5032141;28;20052;-68
2021/01/15 02:08:38;;;;;;;10.50;6.43;;;;;;;-0.76;82.71;100190.88;5032377;28;20112;-68
2021/01/15 02:11:37;;;;;;;10.67;6.90;;;;;;;-0.83;83.29;100197.13;5032318;28;20128;-68
2021/01/15 02:14:30;;;;;;;9.55;6.55;;;;;;;-0.92;83.53;100198.94;5032350;28;20403;-68
2021/01/15 02:16:57;;;;;;;9.37;6.03;;;;;;;-0.99;83.74;100185.78;5020990;28;20080;-67
2021/01/15 02:19:36;;;;;;;10.93;7.07;;;;;;;-0.96;83.43;100187.66;5032095;28;20037;-69
2021/01/15 02:22:30;;;;;;;8.60;6.13;;;;;;;-0.98;83.73;100181.59;5032325;28;20121;-70
2021/01/15 02:25:03;;;;;;;9.90;6.17;;;;;;;-1.08;84.10;100182.53;4951282;29;20075;-70
2021/01/15 02:27:57;;;;;;;10.10;6.63;;;;;;;-1.05;83.97;100182.75;4951684;29;20036;-71
2021/01/15 02:30:37;;;;;;;9.77;6.23;;;;;;;-1.06;83.61;100185.19;4875967;29;20048;-69
2021/01/15 02:33:26;;;;;;;11.17;7.43;;;;;;;-0.95;83.03;100189.44;4875719;29;20070;-70
2021/01/15 02:36:19;;;;;;;10.60;7.70;;;;;;;-0.92;82.81;100189.69;4875907;29;20041;-70
2021/01/15 02:39:07;;;;;;;11.20;6.67;;;;;;;-0.89;82.49;100179.78;4838683;29;20129;-72
2021/01/15 02:41:35;;;;;;;10.17;6.60;;;;;;;-0.90;82.33;100164.47;4838421;29;20498;-70
2021/01/15 02:44:05;;;;;;;10.17;6.80;;;;;;;-0.82;82.14;100176.97;4838452;29;20406;-71
2021/01/15 02:46:56;;;;;;;10.43;6.63;;;;;;;-0.69;81.70;100185.50;4838785;29;20071;-68
2021/01/15 02:49:22;;;;;;;10.17;6.60;;;;;;;-1.02;81.24;100139.94;4838198;29;20205;-70
2021/01/15 02:51:48;;;;;;;11.20;7.00;;;;;;;-0.88;81.92;100183.22;4838567;29;20481;-69
2021/01/15 02:54:14;;;;;;;9.03;6.50;;;;;;;-1.37;82.69;100138.06;4838719;29;20572;-70
2021/01/15 02:56:39;;;;;;;11.17;6.03;;;;;;;-1.48;82.62;100147.34;4838700;29;20121;-67
2021/01/15 02:59:06;;;;;;;9.50;6.20;;;;;;;-1.27;82.99;100203.00;4838737;29;20462;-70
2021/01/15 03:01:36;;;;;;;9.80;6.10;;;;;;;-1.34;82.82;100206.66;4858164;29;20044;-71
2021/01/15 03:04:12;;;;;;;8.23;5.50;;;;;;;-1.33;82.71;100212.66;4894272;29;20541;-69
2021/01/15 03:06:54;;;;;;;11.00;6.90;;;;;;;-1.63;83.23;100184.09;4924392;28;20481;-69
2021/01/15 03:09:19;;;;;;;10.10;7.00;;;;;;;-1.55;82.87;100190.66;4970127;28;20053;-69
2021/01/15 03:11:48;;;;;;;12.97;7.43;;;;;;;-1.32;82.77;100232.16;4970300;28;20035;-70
2021/01/15 03:14:16;;;;;;;11.53;8.97;;;;;;;-1.32;82.80;100225.41;4938072;28;20485;-68
2021/01/15 03:16:44;;;;;;;10.93;8.60;;;;;;;-1.28;81.93;100221.50;5027164;28;20045;-70
2021/01/15 03:19:10;;;;;;;9.70;6.30;;;;;;;-1.56;80.98;100188.88;5013657;28;20042;-72
2021/01/15 03:21:39;;;;;;;8.17;5.63;;;;;;;-1.36;78.86;100225.94;5031109;28;20121;-69
2021/01/15 03:24:06;;;;;;;9.20;5.78;;;;;;;-1.25;78.59;100223.38;5031311;28;20454;-71
2021/01/15 03:26:32;;;;;;;8.43;4.20;;;;;;;-1.30;77.69;100225.53;5013581;28;20455;-70
2021/01/15 03:28:58;;;;;;;8.50;5.57;;;;;;;-1.24;77.33;100226.03;5030834;28;20026;-71
2021/01/15 03:31:24;;;;;;;7.73;4.97;;;;;;;-1.27;77.14;100218.19;5031008;28;20029;-70
2021/01/15 03:33:49;;;;;;;7.10;4.57;;;;;;;-1.24;76.86;100222.63;5031088;28;20091;-70
2021/01/15 03:36:16;;;;;;;6.20;4.23;;;;;;;-1.24;76.80;100226.03;5031313;28;20033;-71
2021/01/15 03:38:42;;;;;;;6.93;4.37;;;;;;;-1.29;77.29;100219.72;5030596;28;20033;-70
2021/01/15 03:41:08;;;;;;;6.97;5.00;;;;;;;-1.32;77.35;100225.41;5030993;28;20049;-70
2021/01/15 03:43:34;;;;;;;9.30;5.70;;;;;;;-1.28;77.43;100236.69;5031086;28;20472;-68
2021/01/15 03:45:59;;;;;;;11.13;5.27;;;;;;;-1.25;76.74;100239.44;5030543;28;20075;-68
2021/01/15 03:48:26;;;;;;;8.90;4.87;;;;;;;-1.28;76.53;100233.25;5031006;28;20025;-70
2021/01/15 03:50:51;;;;;;;8.83;5.93;;;;;;;-1.50;76.40;100196.97;5030711;28;20024;-71
2021/01/15 03:53:19;;;;;;;8.10;4.77;;;;;;;-1.32;77.07;100243.16;5031016;28;20049;-69
2021/01/15 03:55:44;;;;;;;8.53;5.63;;;;;;;-1.33;77.22;100238.84;5029147;28;20026;-70
2021/01/15 03:58:10;;;;;;;7.13;5.07;;;;;;;-1.32;77.09;100243.16;5030712;28;20028;-70
2021/01/15 04:00:35;;;;;;;8.80;5.33;;;;;;;-1.40;77.14;100243.28;5030923;28;20025;-69
2021/01/15 04:03:01;;;;;;;8.13;5.60;;;;;;;-1.41;77.42;100256.72;5034507;28;20033;-69
2021/01/15 04:05:27;;;;;;;10.90;6.00;;;;;;;-1.44;77.49;100248.88;5034727;28;20087;-69
2021/01/15 04:07:52;;;;;;;10.73;6.70;;;;;;;-1.65;77.43;100226.09;5034700;28;20022;-70
2021/01/15 04:10:19;;;;;;;8.57;5.57;;;;;;;-1.42;77.31;100265.06;5034794;28;20021;-70
2021/01/15 04:12:45;;;;;;;11.10;6.80;;;;;;;-1.40;77.39;100248.34;5034486;28;20029;-70
2021/01/15 04:15:12;;;;;;;8.40;5.30;;;;;;;-1.44;77.35;100280.13;5033947;28;20048;-73
2021/01/15 04:17:39;;;;;;;9.67;5.77;;;;;;;-1.47;77.98;100277.34;5034580;28;20128;-70
2021/01/15 04:20:06;;;;;;;7.83;5.47;;;;;;;-1.51;77.55;100280.38;5020490;28;20049;-73
2021/01/15 04:22:36;;;;;;;6.77;4.57;;;;;;;-1.55;77.44;100273.31;5034362;28;20116;-72
2021/01/15 04:25:02;;;;;;;8.37;5.07;;;;;;;-1.61;77.87;100273.69;5034064;28;20036;-72
2021/01/15 04:27:32;;;;;;;9.20;5.10;;;;;;;-1.55;77.45;100285.97;5033859;28;20029;-67
2021/01/15 04:30:03;;;;;;;7.07;4.60;;;;;;;-1.53;77.40;100302.19;5016505;28;20057;-69
2021/01/15 04:32:29;;;;;;;8.43;4.67;;;;;;;-1.50;77.01;100303.28;5020487;28;20549;-70
2021/01/15 04:34:54;;;;;;;6.63;4.13;;;;;;;-1.42;76.29;100306.47;5034586;28;20033;-70
2021/01/15 04:37:20;;;;;;;6.73;4.70;;;;;;;-1.38;76.32;100316.09;5033749;28;20036;-69
2021/01/15 04:39:45;;;;;;;8.40;4.93;;;;;;;-1.47;76.76;100303.56;5034211;28;20025;-72
2021/01/15 04:42:16;;;;;;;7.00;4.37;;;;;;;-1.50;76.60;100313.41;5033127;28;20033;-69
2021/01/15 04:44:48;;;;;;;8.20;5.40;;;;;;;-1.47;76.39;100307.72;4982730;28;20038;-69
2021/01/15 04:47:14;;;;;;;6.73;4.73;;;;;;;-1.55;77.47;100317.22;5033480;28;20030;-70
2021/01/15 04:49:40;;;;;;;6.33;4.40;;;;;;;-1.81;77.43;100285.59;5031949;28;20106;-70
2021/01/15 04:52:13;;;;;;;6.50;4.77;;;;;;;-1.82;77.72;100281.28;5034097;28;20033;-70
2021/01/15 04:54:41;;;;;;;8.13;4.80;;;;;;;-1.69;77.75;100310.16;5033857;28;20403;-69
2021/01/15 04:57:08;;;;;;;6.40;4.50;;;;;;;-1.75;77.71;100318.09;5034034;28;20116;-72
2021/01/15 04:59:44;;;;;;;6.50;4.13;;;;;;;-1.84;78.68;100313.16;5033579;28;20178;-70
2021/01/15 05:02:12;;;;;;;7.20;4.60;;;;;;;-1.86;78.30;100321.38;5033219;28;20048;-68
2021/01/15 05:04:38;;;;;;;7.77;3.87;;;;;;;-1.84;78.04;100340.13;4998368;28;20092;-69
2021/01/15 05:07:06;;;;;;;8.27;5.17;;;;;;;-1.87;78.42;100328.09;5033579;28;20454;-67
2021/01/15 05:09:46;;;;;;;6.50;4.10;;;;;;;-2.01;78.10;100319.31;5033166;28;20401;-69
2021/01/15 05:12:14;;;;;;;6.07;4.47;;;;;;;-1.90;78.45;100340.47;5033197;28;20048;-70
2021/01/15 05:14:49;;;;;;;7.23;4.63;;;;;;;-1.93;78.14;100332.66;5033055;28;20030;-69
2021/01/15 05:17:16;;;;;;;7.00;4.50;;;;;;;-1.87;77.96;100327.19;5033811;28;20377;-66
2021/01/15 05:19:43;;;;;;;6.40;4.40;;;;;;;-2.18;78.01;100274.94;5032673;28;20071;-70
2021/01/15 05:22:12;;;;;;;7.67;4.77;;;;;;;-1.67;77.55;100338.97;5033340;28;20920;-69
2021/01/15 05:24:38;;;;;;;7.65;4.88;;;;;;;-1.80;77.80;100339.63;5033241;28;20048;-70
2021/01/15 05:30:17;;;;;;;8.60;4.60;;;;;;;-1.68;76.74;100349.91;5026286;28;20082;-69
2021/01/15 05:32:47;;;;;;;8.80;5.43;;;;;;;-1.71;76.69;100354.69;5030900;28;20021;-71
2021/01/15 05:35:13;;;;;;;10.90;6.72;;;;;;;-1.52;75.94;100364.69;5014936;28;20087;-67
2021/01/15 05:37:39;;;;;;;10.57;7.10;;;;;;;-1.55;75.42;100360.25;5032953;28;20033;-69
2021/01/15 05:40:06;;;;;;;21.40;14.40;;;;;;;-1.66;76.54;100366.97;5032894;28;20392;-70
2021/01/15 05:42:49;;;;;;;7.80;6.47;;;;;;;-1.72;76.33;100361.41;5032321;28;20037;-69
2021/01/15 05:45:16;;;;;;;6.77;4.23;;;;;;;-1.78;76.14;100363.41;5032289;28;20096;-71
2021/01/15 05:47:43;;;;;;;8.73;4.67;;;;;;;-1.71;75.92;100377.47;5032449;28;20468;-69
2021/01/15 05:50:09;;;;;;;14.87;9.23;;;;;;;-1.71;75.01;100383.41;5032953;28;20057;-69
2021/01/15 05:52:36;;;;;;;9.67;7.07;;;;;;;-2.26;74.96;100283.50;5032287;28;20026;-69
2021/01/15 05:55:11;;;;;;;6.20;4.40;;;;;;;-1.87;74.90;100343.28;5032393;28;20033;-69
2021/01/15 05:57:38;;;;;;;7.27;4.17;;;;;;;-1.58;74.53;100380.28;5031930;28;20036;-70
2021/01/15 06:00:05;;;;;;;5.83;4.07;;;;;;;-1.74;74.21;100347.72;5032581;28;20044;-70
2021/01/15 06:02:30;;;;;;;6.43;3.73;;;;;;;-1.54;74.51;100389.88;5032580;28;20484;-69
2021/01/15 06:04:56;;;;;;;6.57;4.07;;;;;;;-1.54;74.57;100387.34;5032464;28;20032;-71
2021/01/15 06:07:21;;;;;;;5.30;3.23;;;;;;;-1.51;74.04;100394.31;5031034;28;20056;-70
2021/01/15 06:09:48;;;;;;;6.50;4.23;;;;;;;-1.69;74.67;100364.19;5029339;28;20100;-70
2021/01/15 06:12:15;;;;;;;7.13;4.03;;;;;;;-1.55;74.79;100394.84;5032276;28;20487;-66
2021/01/15 06:14:56;;;;;;;7.27;4.57;;;;;;;-1.55;75.05;100384.72;5031255;28;20029;-69
2021/01/15 06:17:22;;;;;;;8.50;5.37;;;;;;;-1.50;74.89;100407.09;5030941;28;20029;-69
2021/01/15 06:19:54;;;;;;;10.57;5.30;;;;;;;-1.53;75.27;100404.31;5031159;28;20045;-69
2021/01/15 06:22:33;;;;;;;9.00;5.10;;;;;;;-1.56;74.79;100400.66;5030924;28;20033;-69
2021/01/15 06:25:18;;;;;;;7.63;4.28;;;;;;;-1.49;74.11;100408.00;5029599;28;20079;-70
2021/01/15 06:27:45;;;;;;;8.23;4.50;;;;;;;-1.35;74.11;100422.69;5030734;28;20041;-69
2021/01/15 06:30:18;;;;;;;5.80;4.07;;;;;;;-1.41;74.10;100406.97;5031340;28;20051;-70
2021/01/15 06:32:45;;;;;;;5.20;3.47;;;;;;;-1.32;73.27;100420.44;5028993;28;20114;-68
2021/01/15 06:35:43;;;;;;;7.00;4.70;;;;;;;-1.29;73.33;100408.78;5031129;28;20025;-66
2021/01/15 06:38:11;;;;;;;7.43;4.87;;;;;;;-1.18;73.36;100426.63;5027534;28;20029;-70
2021/01/15 06:40:44;;;;;;;6.00;4.23;;;;;;;-1.13;73.08;100427.03;5028735;28;20021;-70
2021/01/15 06:43:19;;;;;;;7.30;4.43;;;;;;;-1.06;73.01;100438.53;5030350;28;20025;-69
2021/01/15 06:45:50;;;;;;;6.70;4.27;;;;;;;-1.02;72.66;100441.47;5030948;28;20475;-68
2021/01/15 06:48:24;;;;;;;6.30;4.27;;;;;;;-0.96;72.76;100446.13;5031120;28;20026;-69
2021/01/15 06:50:52;;;;;;;6.20;3.93;;;;;;;-0.99;72.21;100444.22;5030703;28;20048;-69
2021/01/15 06:53:24;;;;;;;6.43;3.83;;;;;;;-0.89;72.28;100447.53;5031715;28;20035;-70
2021/01/15 06:55:55;;;;;;;7.93;4.33;;;;;;;-0.91;71.96;100446.50;5031467;28;20037;-69
2021/01/15 06:58:25;;;;;;;7.23;4.20;;;;;;;-0.82;72.74;100468.44;5031668;28;20033;-70
2021/01/15 07:01:19;;;;;;;7.23;4.20;;;;;;;-0.72;71.70;100469.22;5031495;28;20033;-69
2021/01/15 07:03:53;;;;;;;6.17;3.73;;;;;;;-0.77;72.15;100484.03;5031130;28;20092;-70
2021/01/15 07:06:32;;;;;;;5.70;4.10;;;;;;;-0.67;72.59;100488.22;5031495;28;20084;-69
2021/01/15 07:09:00;;;;;;;8.40;5.10;;;;;;;-0.60;71.81;100477.78;5029292;28;20045;-69
2021/01/15 07:11:30;;;;;;;7.97;5.50;;;;;;;-0.48;71.64;100487.19;5030850;28;20026;-70
2021/01/15 07:14:00;;;;;;;8.20;4.70;;;;;;;-0.41;71.39;100503.03;5031373;28;20079;-69
2021/01/15 07:16:36;;;;;;;6.75;4.07;;;;;;;-0.37;70.57;100481.31;5030442;28;20025;-70
2021/01/15 07:19:05;;;;;;;4.97;3.43;;;;;;;-0.18;70.19;100498.91;5030966;28;20487;-71
2021/01/15 07:21:35;;;;;;;6.23;3.80;;;;;;;-0.12;69.67;100507.00;5031422;28;20049;-70
2021/01/15 07:24:03;;;;;;;6.83;4.00;;;;;;;-0.03;69.40;100510.28;5031324;28;20457;-70
2021/01/15 07:26:39;;;;;;;7.77;4.20;;;;;;;0.06;68.69;100519.41;5030705;28;20036;-72
2021/01/15 07:29:07;;;;;;;9.13;7.07;;;;;;;0.25;69.23;100527.72;5030692;28;20037;-71
2021/01/15 07:31:36;;;;;;;7.67;5.10;;;;;;;0.31;68.54;100540.00;5030959;28;20041;-70
2021/01/15 07:34:05;;;;;;;8.32;5.63;;;;;;;0.45;67.52;100541.09;5031102;28;20092;-70
2021/01/15 07:36:40;;;;;;;6.65;3.75;;;;;;;0.58;67.04;100551.44;5035346;28;20120;-69
2021/01/15 07:39:14;;;;;;;7.83;3.90;;;;;;;0.69;66.94;100549.72;5034648;28;20029;-68
2021/01/15 07:41:52;;;;;;;5.20;3.67;;;;;;;0.85;67.96;100553.44;5034486;28;20021;-70
2021/01/15 07:44:27;;;;;;;7.87;4.40;;;;;;;0.92;68.36;100550.63;5034858;28;20021;-68
2021/01/15 07:46:57;;;;;;;5.37;3.80;;;;;;;0.85;67.93;100545.81;5034847;28;20040;-70
2021/01/15 07:49:23;;;;;;;15.57;10.17;;;;;;;0.77;67.56;100556.31;5034961;28;20033;-70
2021/01/15 07:52:04;;;;;;;7.90;4.00;;;;;;;0.90;68.20;100564.88;5034773;28;20025;-70
2021/01/15 07:54:45;;;;;;;5.40;3.70;;;;;;;0.72;68.82;100566.88;5034739;28;20034;-71
2021/01/15 07:57:11;;;;;;;6.80;4.30;;;;;;;0.70;68.60;100570.94;5035164;28;20087;-71
2021/01/15 07:59:37;;;;;;;7.63;4.70;;;;;;;0.80;68.17;100575.97;5034677;28;20072;-70
2021/01/15 08:02:02;;;;;;;12.17;6.17;;;;;;;0.79;67.57;100579.28;5034818;28;20364;-67
2021/01/15 08:04:28;;;;;;;62.43;22.70;;;;;;;0.87;67.73;100574.78;5034069;28;20024;-69
2021/01/15 08:07:02;;;;;;;27.97;11.20;;;;;;;0.94;66.93;100582.13;5034914;28;20063;-70
2021/01/15 08:09:39;;;;;;;82.23;33.13;;;;;;;0.98;67.63;100575.63;5034559;28;20029;-70
2021/01/15 08:12:05;;;;;;;91.60;32.07;;;;;;;1.04;66.76;100582.06;5034771;28;20029;-69
2021/01/15 08:14:31;;;;;;;42.77;19.17;;;;;;;1.14;66.15;100586.19;5032455;28;20120;-72
2021/01/15 08:16:56;;;;;;;76.00;33.97;;;;;;;1.10;64.91;100558.78;5034335;28;20075;-67
2021/01/15 08:19:22;;;;;;;15.20;7.53;;;;;;;1.40;65.04;100600.91;5034137;28;20044;-70
2021/01/15 08:21:49;;;;;;;6.90;3.57;;;;;;;0.96;65.60;100560.28;5034402;28;20029;-70
2021/01/15 08:24:19;;;;;;;8.10;4.40;;;;;;;0.93;65.44;100560.00;5034574;28;20060;-70
2021/01/15 08:26:44;;;;;;;17.30;8.13;;;;;;;1.35;64.47;100604.75;5033805;28;20032;-73
2021/01/15 08:29:10;;;;;;;8.70;5.87;;;;;;;1.41;64.68;100607.75;5034228;28;20498;-70
2021/01/15 08:31:38;;;;;;;8.07;4.67;;;;;;;1.44;66.01;100602.88;5033979;28;20033;-70
2021/01/15 08:34:09;;;;;;;5.80;4.20;;;;;;;1.52;66.11;100612.75;5033926;28;20438;-69
2021/01/15 08:36:38;;;;;;;6.93;4.03;;;;;;;1.44;65.12;100610.53;5034325;28;20021;-70
2021/01/15 08:39:04;;;;;;;7.00;4.00;;;;;;;1.48;65.17;100611.63;5034159;28;20131;-70
2021/01/15 08:41:29;;;;;;;9.70;7.23;;;;;;;1.65;65.99;100609.50;5015506;28;20492;-70
2021/01/15 08:43:56;;;;;;;8.13;5.63;;;;;;;1.81;66.44;100619.13;5033787;28;20026;-69
2021/01/15 08:46:24;;;;;;;7.53;4.20;;;;;;;1.66;65.30;100623.97;5032836;28;20116;-70
2021/01/15 08:48:49;;;;;;;7.17;4.43;;;;;;;1.87;64.85;100623.06;5034101;28;20029;-70
2021/01/15 08:51:19;;;;;;;5.40;3.80;;;;;;;1.84;64.41;100622.81;5034051;28;20028;-71
2021/01/15 08:56:35;;;;;;;7.37;4.77;;;;;;;1.86;64.05;100620.41;5033779;28;20130;-70
2021/01/15 08:59:01;;;;;;;7.40;5.63;;;;;;;1.88;63.70;100604.47;5016687;28;20030;-70
2021/01/15 09:01:28;;;;;;;5.17;3.30;;;;;;;1.85;62.59;100598.25;5033807;28;20021;-70
2021/01/15 09:04:00;;;;;;;5.50;3.50;;;;;;;1.70;63.00;100552.19;5033128;28;20057;-66
2021/01/15 09:06:27;;;;;;;6.93;4.10;;;;;;;1.99;63.51;100592.50;5031200;28;20053;-69
2021/01/15 09:08:55;;;;;;;6.30;3.97;;;;;;;2.04;62.45;100601.34;5030207;28;20025;-67
2021/01/15 09:11:29;;;;;;;6.50;4.60;;;;;;;2.21;62.71;100604.25;5031954;28;20097;-70
2021/01/15 09:13:56;;;;;;;8.20;4.53;;;;;;;2.17;63.70;100609.88;5031122;28;20032;-70
2021/01/15 09:16:24;;;;;;;8.10;6.03;;;;;;;2.23;62.07;100616.34;5032806;28;20026;-69
2021/01/15 09:18:51;;;;;;;6.47;4.37;;;;;;;2.37;61.23;100599.50;5032778;28;20025;-68
2021/01/15 09:21:17;;;;;;;5.87;4.00;;;;;;;2.49;61.61;100606.25;5032076;28;20509;-69
2021/01/15 09:23:42;;;;;;;7.13;4.70;;;;;;;2.50;63.14;100597.81;5032435;28;20127;-71
2021/01/15 09:26:08;;;;;;;8.47;4.33;;;;;;;2.62;61.39;100585.06;4958478;28;20053;-70
2021/01/15 09:28:34;;;;;;;7.03;4.37;;;;;;;2.78;59.60;100587.91;5032322;28;20087;-70
2021/01/15 09:30:59;;;;;;;8.80;4.40;;;;;;;2.55;59.22;100588.84;5032426;28;20021;-66
2021/01/15 09:33:25;;;;;;;7.33;4.17;;;;;;;2.75;59.18;100595.34;5032739;28;20021;-69
2021/01/15 09:35:52;;;;;;;8.00;4.73;;;;;;;2.55;60.88;100560.81;5032122;28;20083;-70
2021/01/15 09:38:18;;;;;;;6.30;4.73;;;;;;;2.84;59.89;100585.81;5032780;28;20041;-72
2021/01/15 09:40:43;;;;;;;6.97;4.20;;;;;;;2.92;58.70;100599.06;5032604;28;20041;-70
2021/01/15 09:43:09;;;;;;;5.23;3.53;;;;;;;2.89;58.22;100596.31;5032687;28;20507;-69
2021/01/15 09:45:35;;;;;;;11.50;4.03;;;;;;;3.05;59.18;100575.28;5031935;28;20503;-69
2021/01/15 09:48:06;;;;;;;5.03;3.67;;;;;;;3.16;58.45;100573.50;5032260;28;20030;-68
2021/01/15 09:50:31;;;;;;;5.73;3.90;;;;;;;3.11;57.37;100574.84;5014044;28;20037;-69
2021/01/15 09:52:56;;;;;;;8.80;5.00;;;;;;;2.99;59.60;100536.63;5032094;28;20066;-71
2021/01/15 09:55:22;;;;;;;6.07;3.83;;;;;;;3.12;55.31;100574.94;5032154;28;20021;-70
2021/01/15 09:57:48;;;;;;;7.20;3.83;;;;;;;3.13;57.21;100563.06;5031565;28;20383;-69
2021/01/15 10:00:16;;;;;;;7.63;3.90;;;;;;;3.20;55.67;100565.25;5032087;28;20061;-69
2021/01/15 10:02:42;;;;;;;5.70;4.10;;;;;;;3.15;56.78;100554.72;4998647;28;20052;-66
2021/01/15 10:05:10;;;;;;;6.37;3.57;;;;;;;3.35;55.67;100561.22;5032035;28;20021;-69
2021/01/15 10:07:35;;;;;;;6.83;3.80;;;;;;;3.26;56.27;100572.47;5014915;28;20037;-69
2021/01/15 10:10:00;;;;;;;7.77;3.93;;;;;;;3.48;56.31;100573.13;5032090;28;20384;-69
2021/01/15 10:12:26;;;;;;;8.67;4.07;;;;;;;3.51;55.93;100563.09;5032316;28;20029;-69
2021/01/15 10:14:51;;;;;;;6.67;4.60;;;;;;;3.60;58.15;100556.84;5031982;28;20059;-68
2021/01/15 10:17:17;;;;;;;5.73;3.63;;;;;;;3.56;54.94;100558.31;5014693;28;20040;-70
2021/01/15 10:19:42;;;;;;;5.47;3.57;;;;;;;3.48;54.56;100542.50;5031795;28;20474;-69
2021/01/15 10:22:08;;;;;;;6.43;4.03;;;;;;;3.71;56.12;100540.56;5032041;28;20033;-69
2021/01/15 10:24:34;;;;;;;4.90;3.10;;;;;;;3.82;54.20;100531.06;5031988;28;20031;-70
2021/01/15 10:26:59;;;;;;;7.15;4.38;;;;;;;3.68;54.64;100538.69;5031951;28;20033;-67
2021/01/15 10:29:25;;;;;;;9.63;5.32;;;;;;;3.34;54.62;100526.25;5031834;28;20056;-71
2021/01/15 10:31:54;;;;;;;4.15;3.00;;;;;;;3.61;54.54;100538.19;5032089;28;20029;-69
2021/01/15 10:34:23;;;;;;;7.47;5.25;;;;;;;3.84;53.87;100526.94;5030278;28;20026;-67
2021/01/15 10:36:50;;;;;;;10.52;8.57;;;;;;;3.94;53.55;100539.50;5031651;28;20519;-69
2021/01/15 10:39:16;;;;;;;5.15;3.45;;;;;;;4.14;52.72;100520.34;5032466;28;20069;-70
2021/01/15 10:41:45;;;;;;;6.05;3.85;;;;;;;4.29;52.02;100517.00;5031709;28;20049;-67
2021/01/15 10:44:14;;;;;;;5.80;3.30;;;;;;;4.04;53.23;100525.66;5031589;28;20526;-68
2021/01/15 10:46:41;;;;;;;;;;;;;;;4.14;54.08;100515.25;5032879;28;20029;-68
2021/01/15 10:49:08;;;;;;;4.03;2.95;;;;;;;4.23;51.77;100497.03;5033009;28;19963;-70
2021/01/15 10:51:34;;;;;;;5.75;2.80;;;;;;;4.26;50.95;100506.56;5032371;28;20029;-71
2021/01/15 10:54:00;;;;;;;4.30;2.60;;;;;;;3.83;51.63;100518.38;5031074;28;20388;-68
2021/01/15 10:56:34;;;;;;;6.10;3.42;;;;;;;3.95;51.78;100507.19;5031503;28;20021;-70
2021/01/15 10:58:59;;;;;;;6.97;2.58;;;;;;;3.98;51.03;100508.25;5031835;28;20030;-70
2021/01/15 11:01:35;;;;;;;4.68;2.42;;;;;;;3.99;48.09;100514.28;5031263;28;20463;-70
2021/01/15 11:04:01;;;;;;;6.38;2.85;;;;;;;3.93;52.84;100430.47;5022507;28;20061;-69
2021/01/15 11:06:26;;;;;;;4.53;2.80;;;;;;;4.21;49.70;100498.59;5033308;28;20025;-72
2021/01/15 11:08:52;;;;;;;4.95;3.25;;;;;;;4.14;51.36;100499.91;5033221;28;20025;-69
2021/01/15 11:11:17;;;;;;;5.15;2.92;;;;;;;4.00;50.15;100488.81;4979850;28;20037;-70
2021/01/15 11:13:43;;;;;;;5.70;3.47;;;;;;;3.80;50.59;100458.56;5013820;28;20511;-69
2021/01/15 11:16:12;;;;;;;5.32;2.90;;;;;;;3.76;51.12;100490.66;4988335;28;20403;-69
2021/01/15 11:18:38;;;;;;;7.05;3.28;;;;;;;4.04;49.42;100490.78;5030388;28;20061;-68
2021/01/15 11:21:04;;;;;;;4.75;3.10;;;;;;;4.24;49.00;100498.81;5031539;28;20084;-69
2021/01/15 11:23:30;;;;;;;14.15;8.57;;;;;;;4.49;50.38;100488.44;5030875;28;20033;-69
2021/01/15 11:25:56;;;;;;;4.65;3.10;;;;;;;4.62;47.61;100497.75;5031269;28;20021;-68
2021/01/15 11:28:22;;;;;;;4.55;2.85;;;;;;;4.41;49.07;100491.31;5031142;28;20108;-69
2021/01/15 11:30:47;;;;;;;4.90;2.95;;;;;;;4.56;48.76;100486.25;5031142;28;20098;-69
2021/01/15 11:33:13;;;;;;;4.50;2.90;;;;;;;4.70;48.36;100463.28;5027588;28;20049;-68
2021/01/15 11:35:39;;;;;;;19.85;7.93;;;;;;;4.56;49.29;100443.69;5031101;28;20025;-67
2021/01/15 11:38:05;;;;;;;19.02;8.48;;;;;;;4.85;50.39;100470.13;5031097;28;20029;-69
2021/01/15 11:40:33;;;;;;;8.38;3.13;;;;;;;4.49;48.21;100470.53;5031312;28;20029;-69